Time;durP1;ratioP1;P1;durP2;ratioP2;P2;SDS_P1;SDS_P2;PMS_P1;PMS_P2;Temp;Humidity;BMP_temperature;BMP_pressure;BME280_temperature;BME280_humidity;BME280_pressure;Samples;Min_cycle;Max_cycle;Signal;HPM_P1;HPM_P2
2023/10/26 00:08:42;;;;;;;0.70;0.70;;;11.50;1.00;;;;;;4996775;28;20495;-80
2023/10/26 00:11:07;;;;;;;1.37;0.90;;;11.50;1.00;;;;;;4994894;28;20464;-80
2023/10/26 00:16:55;;;;;;;3.13;1.00;;;11.70;1.20;;;;;;5008925;28;20224;-71
2023/10/26 00:19:21;;;;;;;1.17;0.90;;;11.70;1.00;;;;;;4994038;28;20396;-71
2023/10/26 00:21:47;;;;;;;4.93;0.83;;;11.70;1.00;;;;;;4997078;28;20245;-71
2023/10/26 00:24:12;;;;;;;0.60;0.60;;;11.60;1.00;;;;;;4994346;28;20181;-71
2023/10/26 00:26:40;;;;;;;3.50;0.93;;;11.70;1.00;;;;;;5008491;28;20627;-71
2023/10/26 00:29:06;;;;;;;2.00;0.80;;;11.60;1.00;;;;;;4993409;28;20185;-71
2023/10/26 00:31:31;;;;;;;0.80;0.80;;;11.70;1.00;;;;;;4990400;28;20424;-71
2023/10/26 00:33:57;;;;;;;1.17;1.07;;;11.70;1.00;;;;;;4992923;28;20220;-71
2023/10/26 00:36:23;;;;;;;0.70;0.70;;;11.70;1.00;;;;;;4994415;28;20205;-71
2023/10/26 00:38:49;;;;;;;5.90;1.00;;;11.80;1.00;;;;;;4989728;28;20182;-71
2023/10/26 00:41:14;;;;;;;2.43;1.13;;;11.70;1.00;;;;;;4981220;28;20181;-71
2023/10/26 00:43:40;;;;;;;2.10;1.10;;;11.80;1.00;;;;;;4993633;28;20178;-71
2023/10/26 00:46:59;;;;;;;5.93;1.30;;;11.60;1.00;;;;;;4994259;28;20264;-80
2023/10/26 00:52:47;;;;;;;1.63;0.97;;;11.60;1.00;;;;;;4982968;28;20824;-80
2023/10/26 00:55:18;;;;;;;0.77;0.77;;;11.60;1.00;;;;;;4995333;28;20448;-80
2023/10/26 00:58:30;;;;;;;2.73;0.80;;;11.50;1.00;;;;;;5013937;28;20487;-80
2023/10/26 01:01:00;;;;;;;9.90;1.30;;;11.50;1.00;;;;;;5002964;28;20450;-81
2023/10/26 01:03:29;;;;;;;3.70;0.80;;;11.50;1.00;;;;;;4997835;28;20420;-71
2023/10/26 01:05:55;;;;;;;1.37;0.97;;;11.60;1.00;;;;;;4994694;28;20435;-71
2023/10/26 01:08:21;;;;;;;0.70;0.70;;;11.60;1.00;;;;;;4993593;28;20922;-71
2023/10/26 01:10:46;;;;;;;0.97;0.90;;;11.50;1.00;;;;;;4999801;28;20211;-71
2023/10/26 01:13:18;;;;;;;0.90;0.90;;;11.50;1.00;;;;;;4999510;28;20464;-71
2023/10/26 01:15:44;;;;;;;0.80;0.80;;;11.40;1.00;;;;;;4999330;28;20232;-72
2023/10/26 01:25:25;;;;;;;3.30;2.07;;;11.30;1.00;;;;;;5018908;28;20379;-81
2023/10/26 01:28:29;;;;;;;3.60;1.20;;;11.20;1.00;;;;;;5015235;28;20448;-81
2023/10/26 01:31:18;;;;;;;1.00;0.90;;;11.10;1.00;;;;;;4999929;28;20427;-80
2023/10/26 01:33:44;;;;;;;4.33;1.40;;;11.10;1.00;;;;;;4998891;28;20775;-71
2023/10/26 01:36:10;;;;;;;1.47;1.10;;;11.10;1.00;;;;;;4998308;28;20452;-71
2023/10/26 01:38:36;;;;;;;1.07;1.03;;;11.10;1.00;;;;;;5000723;28;20811;-71
2023/10/26 01:41:02;;;;;;;1.00;1.00;;;11.00;1.00;;;;;;4998677;28;20529;-71
2023/10/26 01:43:29;;;;;;;3.33;1.30;;;11.00;1.00;;;;;;4999084;28;20427;-71
2023/10/26 01:45:54;;;;;;;1.10;1.10;;;11.00;1.00;;;;;;5000080;28;20440;-71
2023/10/26 01:48:53;;;;;;;6.43;1.53;;;10.90;1.00;;;;;;4988579;28;20527;-80
2023/10/26 01:58:12;;;;;;;1.40;1.30;;;10.80;1.00;;;;;;5007737;28;20959;-81
2023/10/26 02:03:59;;;;;;;7.87;1.97;;;10.90;1.00;;;;;;4990354;28;20439;-71
2023/10/26 02:06:25;;;;;;;1.00;1.00;;;10.90;1.00;;;;;;5000952;28;20421;-71
2023/10/26 02:08:50;;;;;;;1.43;1.33;;;11.00;1.00;;;;;;5000565;28;20597;-71
2023/10/26 02:11:16;;;;;;;6.00;1.27;;;10.90;1.00;;;;;;4999020;28;20284;-71
2023/10/26 02:13:42;;;;;;;3.23;1.40;;;11.00;1.00;;;;;;5012634;28;20201;-72
2023/10/26 02:16:13;;;;;;;4.83;1.50;;;11.00;1.00;;;;;;4998834;28;20204;-71
2023/10/26 02:22:00;;;;;;;2.53;1.63;;;11.00;1.00;;;;;;5016616;28;20423;-81
2023/10/26 02:27:48;;;;;;;1.10;1.10;;;10.90;1.00;;;;;;4993376;28;20266;-82
2023/10/26 02:31:05;;;;;;;2.60;1.70;;;10.90;1.00;;;;;;4986846;28;20446;-81
2023/10/26 02:33:31;;;;;;;2.13;1.67;;;10.90;1.00;;;;;;4987562;28;20189;-71
2023/10/26 02:35:56;;;;;;;2.20;2.00;;;10.90;1.00;;;;;;4987825;28;20460;-72
2023/10/26 02:38:22;;;;;;;2.17;1.97;;;10.90;1.00;;;;;;4994072;28;20209;-71
2023/10/26 02:40:48;;;;;;;3.00;2.47;;;11.00;1.00;;;;;;4990533;28;20235;-71
2023/10/26 02:43:14;;;;;;;2.50;2.30;;;11.00;1.00;;;;;;4994484;28;20188;-71
2023/10/26 02:45:40;;;;;;;2.90;1.83;;;11.00;1.00;;;;;;4992330;28;20184;-72
2023/10/26 02:48:35;;;;;;;1.90;1.80;;;11.10;1.00;;;;;;4996194;28;20181;-81
2023/10/26 02:54:26;;;;;;;3.10;2.50;;;10.90;1.00;;;;;;4980924;28;20557;-81
2023/10/26 02:56:54;;;;;;;5.27;2.40;;;10.90;1.00;;;;;;4980870;28;20446;-81
2023/10/26 02:59:20;;;;;;;1.93;1.83;;;10.90;1.00;;;;;;5002984;28;20928;-81
2023/10/26 03:01:46;;;;;;;2.57;2.37;;;11.00;1.00;;;;;;4995842;28;20444;-81
2023/10/26 03:04:12;;;;;;;3.13;2.53;;;11.00;1.00;;;;;;4994684;28;20468;-72
2023/10/26 03:06:38;;;;;;;4.57;2.27;;;10.90;1.00;;;;;;4995291;28;20189;-71
2023/10/26 03:09:05;;;;;;;2.83;2.17;;;10.90;1.00;;;;;;4994814;28;20177;-71
2023/10/26 03:11:31;;;;;;;3.03;2.13;;;10.90;1.00;;;;;;4994490;28;20495;-72
2023/10/26 03:13:57;;;;;;;3.33;2.20;;;10.90;1.00;;;;;;4995775;28;20444;-72
2023/10/26 03:16:23;;;;;;;2.07;1.97;;;10.90;1.00;;;;;;4995496;28;20468;-71
2023/10/26 03:18:49;;;;;;;4.20;2.10;;;10.80;1.00;;;;;;4994433;28;20450;-72
2023/10/26 03:21:16;;;;;;;12.23;2.40;;;10.90;1.00;;;;;;4993185;28;20200;-71
2023/10/26 03:23:41;;;;;;;10.93;2.37;;;10.90;1.00;;;;;;5003440;28;20185;-71
2023/10/26 03:26:11;;;;;;;3.83;2.20;;;11.00;1.00;;;;;;4997916;28;20448;-71
2023/10/26 03:28:37;;;;;;;2.53;2.33;;;11.00;1.00;;;;;;5004350;28;20216;-71
2023/10/26 03:31:09;;;;;;;2.70;2.50;;;11.10;1.00;;;;;;4993780;28;20542;-71
2023/10/26 03:33:35;;;;;;;9.03;2.40;;;11.00;1.00;;;;;;4996667;28;20189;-71
2023/10/26 03:36:21;;;;;;;3.97;2.50;;;11.00;1.00;;;;;;5000795;28;20467;-72
2023/10/26 03:38:49;;;;;;;3.23;2.40;;;11.00;1.00;;;;;;4997835;28;20181;-71
2023/10/26 03:41:15;;;;;;;3.10;2.40;;;11.00;1.00;;;;;;4995212;28;20411;-71
2023/10/26 03:43:41;;;;;;;4.30;2.40;;;10.90;1.00;;;;;;4998062;28;20472;-71
2023/10/26 03:46:08;;;;;;;2.63;2.43;;;10.90;1.00;;;;;;5005596;28;20749;-71
2023/10/26 03:48:35;;;;;;;4.57;2.40;;;10.80;1.00;;;;;;5006113;28;20439;-79
2023/10/26 03:54:22;;;;;;;3.00;2.40;;;10.70;1.00;;;;;;4976101;28;20392;-81
2023/10/26 03:57:23;;;;;;;3.07;2.17;;;10.70;1.00;;;;;;4995707;28;20821;-81
2023/10/26 04:00:41;;;;;;;6.00;2.50;;;10.60;1.00;;;;;;4995378;28;20180;-80
2023/10/26 04:03:47;;;;;;;2.40;2.20;;;10.50;1.00;;;;;;4979402;28;20423;-81
2023/10/26 04:06:13;;;;;;;2.20;2.10;;;10.40;1.00;;;;;;4992011;28;20451;-72
2023/10/26 04:08:39;;;;;;;2.93;2.63;;;10.30;1.00;;;;;;4994224;28;20440;-72
2023/10/26 04:11:04;;;;;;;4.80;2.67;;;10.20;1.00;;;;;;4993023;28;20301;-72
2023/10/26 04:13:30;;;;;;;13.53;2.10;;;10.10;1.00;;;;;;4994967;28;20185;-71
2023/10/26 04:16:03;;;;;;;6.97;2.97;;;10.10;1.00;;;;;;4994774;28;20293;-72
2023/10/26 04:18:30;;;;;;;2.80;2.23;;;10.00;1.00;;;;;;4993177;28;20447;-72
2023/10/26 04:20:56;;;;;;;3.47;2.37;;;9.90;1.00;;;;;;4995081;28;20405;-72
2023/10/26 04:23:24;;;;;;;2.70;2.50;;;9.90;1.00;;;;;;4994428;28;20898;-72
2023/10/26 04:25:50;;;;;;;6.60;2.33;;;9.80;1.00;;;;;;4993462;28;20440;-71
2023/10/26 04:28:16;;;;;;;4.00;2.70;;;9.70;1.00;;;;;;4981395;28;20445;-72
2023/10/26 04:30:47;;;;;;;15.13;4.37;;;9.70;1.00;;;;;;4980046;28;20507;-71
2023/10/26 04:33:13;;;;;;;5.40;2.67;;;9.70;1.00;;;;;;4990158;28;20448;-71
2023/10/26 04:39:00;;;;;;;3.47;2.80;;;9.60;1.00;;;;;;4999317;28;20501;-80
2023/10/26 04:44:48;;;;;;;6.67;3.10;;;9.80;1.00;;;;;;5003471;28;20232;-81
2023/10/26 04:51:06;;;;;;;6.50;3.70;;;9.80;2.80;;;;;;5010545;28;20224;-81
2023/10/26 04:56:54;;;;;;;2.87;2.63;;;10.00;1.00;;;;;;5009724;28;20451;-81
2023/10/26 05:06:04;;;;;;;3.00;2.50;;;10.30;1.00;;;;;;4990475;28;21004;-72
2023/10/26 05:08:30;;;;;;;4.57;2.57;;;10.40;1.00;;;;;;4993082;28;20498;-72
2023/10/26 05:10:55;;;;;;;3.07;2.80;;;10.40;1.00;;;;;;4991129;28;20436;-72
2023/10/26 05:13:21;;;;;;;3.20;2.80;;;10.50;1.00;;;;;;4990308;28;20204;-71
2023/10/26 05:15:48;;;;;;;5.87;2.80;;;10.60;1.00;;;;;;4993022;28;20272;-72
2023/10/26 05:18:18;;;;;;;7.83;2.70;;;10.50;1.00;;;;;;4993219;28;20443;-71
2023/10/26 05:21:29;;;;;;;3.27;2.97;;;10.60;1.00;;;;;;4997087;28;20431;-81
2023/10/26 05:27:18;;;;;;;4.37;3.10;;;10.70;1.00;;;;;;5005037;28;20398;-81
2023/10/26 05:36:27;;;;;;;5.20;2.10;;;10.80;1.00;;;;;;5002315;28;20595;-71
2023/10/26 05:38:53;;;;;;;3.83;2.83;;;10.80;1.00;;;;;;5005662;28;20512;-71
2023/10/26 05:41:19;;;;;;;3.03;2.73;;;10.80;1.00;;;;;;5000981;28;20426;-71
2023/10/26 05:43:45;;;;;;;2.80;2.60;;;10.80;1.00;;;;;;5002577;28;20205;-72
2023/10/26 05:46:11;;;;;;;2.10;2.00;;;10.80;1.00;;;;;;5006398;28;20192;-71
2023/10/26 05:48:37;;;;;;;2.33;2.13;;;10.80;1.00;;;;;;5010073;28;20242;-72
2023/10/26 05:51:12;;;;;;;2.50;2.33;;;10.80;1.00;;;;;;5007625;28;20526;-80
2023/10/26 05:57:41;;;;;;;1.90;1.80;;;10.90;1.00;;;;;;4996079;28;20547;-80
2023/10/26 06:00:18;;;;;;;3.00;2.20;;;10.90;1.00;;;;;;4993495;28;20805;-81
2023/10/26 06:03:33;;;;;;;4.40;2.00;;;10.90;1.00;;;;;;5006075;28;20531;-81
2023/10/26 06:06:00;;;;;;;3.20;1.90;;;10.90;1.00;;;;;;4989248;28;20424;-72
2023/10/26 06:08:25;;;;;;;3.63;2.40;;;10.80;1.00;;;;;;4997358;28;20416;-72
2023/10/26 06:10:54;;;;;;;2.37;2.20;;;10.90;1.00;;;;;;5001963;28;20772;-72
2023/10/26 06:13:24;;;;;;;2.00;1.80;;;10.90;1.00;;;;;;5000005;28;20197;-72
2023/10/26 06:15:50;;;;;;;1.80;1.70;;;10.80;1.00;;;;;;4998187;28;20460;-72
2023/10/26 06:18:16;;;;;;;2.10;1.90;;;10.90;1.00;;;;;;4995600;28;20450;-72
2023/10/26 06:31:27;;;;;;;5.80;1.37;;;11.00;1.00;;;;;;5002433;28;20778;-81
2023/10/26 06:33:53;;;;;;;2.47;1.63;;;11.00;1.00;;;;;;4986016;28;20460;-80
2023/10/26 06:36:19;;;;;;;2.00;1.90;;;11.00;1.00;;;;;;5004305;28;20514;-72
2023/10/26 06:38:44;;;;;;;1.60;1.50;;;11.00;1.00;;;;;;4995112;28;20645;-72
2023/10/26 06:41:12;;;;;;;1.50;1.40;;;11.00;1.00;;;;;;4996615;28;20186;-72
2023/10/26 06:43:38;;;;;;;7.30;1.70;;;11.10;1.00;;;;;;4996444;28;20182;-72
2023/10/26 06:46:04;;;;;;;12.00;1.57;;;11.10;1.00;;;;;;5013232;28;20942;-72
2023/10/26 06:48:30;;;;;;;1.83;1.70;;;11.10;1.00;;;;;;4997855;28;20239;-72
2023/10/26 06:51:00;;;;;;;2.17;1.70;;;11.20;1.00;;;;;;4998338;28;20508;-72
2023/10/26 06:53:27;;;;;;;4.60;1.53;;;11.30;1.00;;;;;;4998417;28;20192;-71
2023/10/26 06:55:53;;;;;;;1.93;1.43;;;11.30;1.00;;;;;;4995332;28;20444;-72
2023/10/26 06:58:18;;;;;;;2.17;1.83;;;11.50;1.00;;;;;;4997257;28;20931;-72
2023/10/26 07:00:44;;;;;;;1.50;1.40;;;11.50;1.00;;;;;;5004168;28;20189;-72
2023/10/26 07:03:10;;;;;;;1.60;1.50;;;11.50;1.00;;;;;;4997509;28;20613;-72
2023/10/26 07:05:42;;;;;;;1.50;1.40;;;11.50;1.00;;;;;;5003334;28;20181;-72
2023/10/26 07:08:08;;;;;;;1.77;1.40;;;11.60;1.00;;;;;;4988994;28;20186;-72
2023/10/26 07:10:34;;;;;;;1.70;1.40;;;11.60;1.00;;;;;;5002233;28;20444;-71
2023/10/26 07:12:59;;;;;;;1.70;1.60;;;11.80;1.00;;;;;;5001875;28;20467;-72
2023/10/26 07:15:25;;;;;;;1.63;1.53;;;11.80;1.00;;;;;;5008369;28;20190;-71
2023/10/26 07:17:51;;;;;;;2.43;1.60;;;11.80;1.00;;;;;;5001434;28;20664;-72
2023/10/26 07:20:17;;;;;;;1.60;1.50;;;12.00;1.00;;;;;;5007928;28;20680;-72
2023/10/26 07:22:43;;;;;;;2.77;1.83;;;12.10;1.00;;;;;;5002011;28;20501;-72
2023/10/26 07:25:09;;;;;;;3.37;1.63;;;12.20;1.00;;;;;;5003149;28;20432;-72
2023/10/26 07:27:35;;;;;;;1.50;1.40;;;12.20;1.00;;;;;;4999130;28;20207;-72
2023/10/26 07:30:20;;;;;;;3.00;1.43;;;12.30;1.00;;;;;;4994347;28;20445;-72
2023/10/26 07:32:52;;;;;;;4.23;1.60;;;;;;;;;;4993593;28;20430;-80
2023/10/26 07:35:24;;;;;;;1.70;1.60;;;12.20;1.00;;;;;;4985235;28;20524;-72
2023/10/26 07:37:51;;;;;;;1.20;1.20;;;12.10;1.00;;;;;;5002820;28;20456;-80
2023/10/26 07:40:18;;;;;;;1.27;1.17;;;12.10;1.00;;;;;;4995627;28;20421;-81
2023/10/26 07:43:12;;;;;;;4.50;1.50;;;12.10;1.00;;;;;;5011132;28;20438;-81
2023/10/26 07:45:37;;;;;;;4.20;1.60;;;12.20;1.00;;;;;;5014188;28;20386;-81
2023/10/26 07:48:03;;;;;;;4.20;1.43;;;12.40;1.00;;;;;;4999632;28;20398;-81
2023/10/26 07:50:43;;;;;;;3.90;1.40;;;;;;;;;;4998820;28;20200;-81
2023/10/26 07:53:08;;;;;;;8.80;1.67;;;12.70;1.00;;;;;;5003104;28;20927;-72
2023/10/26 07:55:34;;;;;;;1.33;1.23;;;12.70;1.00;;;;;;4999102;28;20418;-72
2023/10/26 07:58:01;;;;;;;1.80;1.70;;;13.00;1.00;;;;;;4982751;28;20214;-72
2023/10/26 08:00:27;;;;;;;1.47;1.37;;;13.20;1.00;;;;;;4991911;28;20455;-72
2023/10/26 08:02:54;;;;;;;5.83;1.80;;;13.20;1.00;;;;;;4981575;28;20448;-72
2023/10/26 08:05:19;;;;;;;4.60;1.53;;;13.30;1.00;;;;;;4988915;28;20166;-72
2023/10/26 08:07:47;;;;;;;4.00;1.40;;;13.40;1.00;;;;;;4996087;28;20451;-72
2023/10/26 08:10:13;;;;;;;11.07;1.80;;;13.50;1.00;;;;;;5002740;28;20180;-72
2023/10/26 08:12:39;;;;;;;4.97;1.70;;;13.40;1.00;;;;;;4998824;28;20445;-72
2023/10/26 08:15:05;;;;;;;5.30;1.30;;;13.40;1.00;;;;;;5007979;28;20220;-72
2023/10/26 08:17:35;;;;;;;1.50;1.40;;;13.30;1.00;;;;;;4991440;28;20516;-72
2023/10/26 08:20:04;;;;;;;1.90;1.40;;;13.40;1.00;;;;;;4996427;28;20863;-72
2023/10/26 08:25:52;;;;;;;2.00;1.53;;;13.60;1.00;;;;;;4999228;28;20942;-80
2023/10/26 08:31:39;;;;;;;3.93;2.00;;;13.40;1.00;;;;;;4984944;28;20212;-80
2023/10/26 08:37:27;;;;;;;2.40;2.10;;;13.10;1.00;;;;;;5000861;28;20256;-72
2023/10/26 08:39:53;;;;;;;1.80;1.70;;;13.10;1.00;;;;;;4996299;28;20486;-73
2023/10/26 08:42:19;;;;;;;2.10;1.90;;;13.10;1.00;;;;;;4992632;28;20444;-72
2023/10/26 08:44:45;;;;;;;1.90;1.80;;;13.10;1.00;;;;;;4984197;28;20183;-72
2023/10/26 08:47:14;;;;;;;3.27;1.70;;;13.10;1.00;;;;;;4994713;28;20524;-72
2023/10/26 08:49:52;;;;;;;3.07;2.23;;;13.30;1.00;;;;;;4994012;28;20181;-71
2023/10/26 08:55:55;;;;;;;2.27;1.87;;;13.50;1.00;;;;;;5007796;28;20399;-80
2023/10/26 08:58:33;;;;;;;1.90;1.80;;;13.50;1.00;;;;;;4988249;28;20479;-80
2023/10/26 09:01:06;;;;;;;1.47;1.37;;;13.50;1.00;;;;;;4993522;28;20425;-80
2023/10/26 09:04:11;;;;;;;1.90;1.80;;;13.60;1.00;;;;;;5006901;28;20486;-81
2023/10/26 09:06:49;;;;;;;1.70;1.60;;;13.40;1.00;;;;;;4994551;28;20460;-80
2023/10/26 09:09:44;;;;;;;1.57;1.47;;;13.40;1.00;;;;;;4982597;28;20425;-80
2023/10/26 09:12:10;;;;;;;4.93;1.97;;;13.60;1.00;;;;;;5013891;28;20446;-80
2023/10/26 09:15:03;;;;;;;1.97;1.80;;;13.60;1.00;;;;;;4999597;28;20424;-80
2023/10/26 09:18:12;;;;;;;8.43;2.03;;;14.00;1.00;;;;;;5013089;28;20537;-79
2023/10/26 09:24:16;;;;;;;1.80;1.70;;;14.30;1.00;;;;;;4990147;28;20394;-72
2023/10/26 09:26:45;;;;;;;6.43;1.20;;;14.00;1.00;;;;;;5007010;28;20534;-72
2023/10/26 09:29:11;;;;;;;1.40;1.30;;;13.90;1.00;;;;;;4990170;28;20468;-72
2023/10/26 09:31:52;;;;;;;1.60;1.50;;;13.90;1.00;;;;;;4999411;28;20474;-73
2023/10/26 09:34:17;;;;;;;1.30;1.30;;;14.20;1.00;;;;;;4990747;28;20233;-72
2023/10/26 09:37:00;;;;;;;2.60;1.17;;;14.30;1.00;;;;;;4996539;28;20770;-72
2023/10/26 09:39:30;;;;;;;3.07;1.57;;;14.30;1.00;;;;;;4998456;28;20613;-72
2023/10/26 09:41:57;;;;;;;1.20;1.10;;;14.60;1.00;;;;;;5006771;28;20420;-72
2023/10/26 09:44:24;;;;;;;1.20;1.20;;;14.60;1.00;;;;;;5003298;28;20407;-72
2023/10/26 09:46:50;;;;;;;1.17;1.17;;;14.70;1.00;;;;;;4997096;28;20449;-72
2023/10/26 09:49:30;;;;;;;1.17;1.17;;;15.00;1.00;;;;;;5001059;28;20767;-75
2023/10/26 09:51:58;;;;;;;1.67;1.57;;;14.80;1.00;;;;;;5006497;28;20499;-76
2023/10/26 09:54:31;;;;;;;2.70;1.40;;;15.00;1.00;;;;;;5010616;28;20421;-76
2023/10/26 09:57:03;;;;;;;1.73;1.50;;;14.80;1.00;;;;;;5009803;28;20470;-76
2023/10/26 09:59:29;;;;;;;3.70;1.57;;;14.90;1.00;;;;;;4997421;28;20395;-72
2023/10/26 10:01:56;;;;;;;1.73;1.53;;;14.90;1.00;;;;;;4997936;28;20460;-72
2023/10/26 10:04:37;;;;;;;6.67;1.20;;;15.00;1.00;;;;;;5002528;28;20807;-72
2023/10/26 10:07:06;;;;;;;1.17;1.10;;;14.60;1.00;;;;;;5001103;28;20185;-75
2023/10/26 10:09:32;;;;;;;2.60;1.40;;;14.70;1.00;;;;;;5004191;28;20429;-72
2023/10/26 10:12:15;;;;;;;1.07;1.07;;;14.70;1.00;;;;;;4999555;28;20431;-72
2023/10/26 10:14:47;;;;;;;2.00;1.87;;;14.50;1.00;;;;;;4996836;28;20188;-72
2023/10/26 10:17:13;;;;;;;1.50;1.40;;;14.70;1.00;;;;;;5000577;28;20540;-72
2023/10/26 10:19:40;;;;;;;1.57;1.30;;;14.80;1.00;;;;;;4997319;28;20967;-71
2023/10/26 10:22:38;;;;;;;1.60;1.50;;;14.70;1.00;;;;;;4992836;28;20867;-73
2023/10/26 10:25:42;;;;;;;3.43;1.37;;;14.40;1.00;;;;;;4921031;29;20435;-79
2023/10/26 10:28:18;;;;;;;2.90;1.03;;;14.70;1.00;;;;;;4955864;29;20416;-79
2023/10/26 10:34:09;;;;;;;1.07;1.00;;;14.70;1.00;;;;;;4941209;28;20365;-78
2023/10/26 10:37:21;;;;;;;1.37;1.27;;;14.90;1.00;;;;;;4955522;29;20467;-79
2023/10/26 10:43:09;;;;;;;1.90;1.10;;;15.10;1.00;;;;;;4943655;29;20394;-79
2023/10/26 10:46:18;;;;;;;1.23;1.00;;;15.10;1.00;;;;;;4950750;29;20941;-79
2023/10/26 10:52:24;;;;;;;2.93;1.13;;;15.20;1.00;;;;;;4951109;29;20467;-79
2023/10/26 10:54:50;;;;;;;2.80;0.90;;;15.40;1.00;;;;;;4949249;29;20448;-72
2023/10/26 10:57:15;;;;;;;1.93;1.07;;;15.20;1.00;;;;;;4953274;29;20822;-72
2023/10/26 10:59:41;;;;;;;0.80;0.80;;;15.20;1.00;;;;;;4949421;29;20191;-72
2023/10/26 11:02:08;;;;;;;1.33;1.00;;;15.20;1.00;;;;;;4975094;28;20189;-72
2023/10/26 11:04:34;;;;;;;1.80;1.20;;;15.30;1.00;;;;;;5000516;28;20665;-72
2023/10/26 11:07:00;;;;;;;0.80;0.80;;;15.30;1.00;;;;;;5000959;28;20515;-71
2023/10/26 11:09:29;;;;;;;5.70;1.20;;;15.20;1.00;;;;;;4995493;28;20189;-72
2023/10/26 11:11:55;;;;;;;2.90;1.20;;;15.10;1.00;;;;;;4995922;28;20451;-72
2023/10/26 11:14:21;;;;;;;0.83;0.83;;;15.10;1.00;;;;;;4997913;28;20430;-72
2023/10/26 11:16:48;;;;;;;1.27;1.17;;;15.20;1.00;;;;;;5004208;28;20224;-71
2023/10/26 11:19:14;;;;;;;0.80;0.80;;;15.20;1.00;;;;;;5003678;28;20410;-72
2023/10/26 11:21:42;;;;;;;1.10;1.00;;;15.00;1.00;;;;;;5005134;28;20424;-72
2023/10/26 11:24:08;;;;;;;1.87;1.03;;;15.10;1.00;;;;;;5006369;28;20261;-72
2023/10/26 11:26:34;;;;;;;0.90;0.90;;;15.20;1.00;;;;;;5008910;28;20519;-71
2023/10/26 11:29:04;;;;;;;0.70;0.70;;;15.10;1.00;;;;;;5006858;28;20511;-72
2023/10/26 11:31:41;;;;;;;3.33;1.00;;;15.00;1.00;;;;;;4995232;28;20228;-72
2023/10/26 11:34:08;;;;;;;2.03;1.03;;;14.90;1.00;;;;;;4977925;28;20514;-73
2023/10/26 11:36:44;;;;;;;3.90;0.93;;;14.90;1.00;;;;;;4997583;28;20431;-72
2023/10/26 11:39:10;;;;;;;2.50;0.90;;;14.80;1.00;;;;;;5000582;28;20463;-79
2023/10/26 11:44:58;;;;;;;1.10;1.00;;;14.60;1.00;;;;;;5005638;28;20180;-79
2023/10/26 11:47:57;;;;;;;0.97;0.97;;;14.50;1.00;;;;;;4992668;28;20406;-79
2023/10/26 11:51:18;;;;;;;2.43;1.63;;;14.70;1.00;;;;;;4982161;28;20236;-79
2023/10/26 11:53:48;;;;;;;1.40;1.30;;;14.90;1.00;;;;;;4987207;28;20429;-72
2023/10/26 11:56:14;;;;;;;1.93;1.30;;;14.80;1.00;;;;;;4975156;28;20846;-72
2023/10/26 11:58:39;;;;;;;1.23;1.13;;;15.20;1.00;;;;;;4976832;28;20418;-72
2023/10/26 12:01:06;;;;;;;2.33;1.63;;;15.20;1.00;;;;;;4974632;28;20523;-72
2023/10/26 12:03:32;;;;;;;1.30;1.30;;;15.30;1.00;;;;;;4971692;28;20191;-72
2023/10/26 12:05:57;;;;;;;1.53;1.37;;;15.20;1.00;;;;;;4974869;28;20397;-72
2023/10/26 12:09:06;;;;;;;1.50;1.40;;;15.10;1.00;;;;;;4977187;28;20532;-79
2023/10/26 12:15:04;;;;;;;1.20;1.20;;;15.00;1.00;;;;;;4988653;28;20483;-79
2023/10/26 12:18:00;;;;;;;3.53;3.20;;;14.80;1.00;;;;;;4984536;28;20447;-79
2023/10/26 12:20:25;;;;;;;4.90;1.57;;;14.80;1.00;;;;;;4974960;28;20519;-72
2023/10/26 12:22:52;;;;;;;1.83;1.57;;;14.90;1.00;;;;;;4975271;28;20447;-72
2023/10/26 12:25:18;;;;;;;2.63;1.40;;;14.90;1.00;;;;;;4976501;28;20194;-71
2023/10/26 12:27:44;;;;;;;1.70;1.60;;;14.90;1.00;;;;;;4995345;28;20513;-76
2023/10/26 12:30:10;;;;;;;4.20;1.67;;;15.00;1.00;;;;;;4994957;28;20422;-77
2023/10/26 12:32:36;;;;;;;8.87;1.43;;;15.10;1.00;;;;;;4992111;28;20407;-75
2023/10/26 12:35:06;;;;;;;3.30;1.80;;;15.40;1.00;;;;;;4970058;28;20436;-76
2023/10/26 12:37:32;;;;;;;1.40;1.30;;;15.40;1.00;;;;;;4990556;28;20435;-73
2023/10/26 12:40:08;;;;;;;1.87;1.37;;;15.60;1.00;;;;;;4991561;28;20484;-77
2023/10/26 12:42:36;;;;;;;3.33;1.83;;;15.80;1.00;;;;;;4987235;28;20183;-78
2023/10/26 12:45:02;;;;;;;4.73;1.47;;;16.10;1.00;;;;;;4993220;28;20432;-74
2023/10/26 12:47:30;;;;;;;1.87;1.20;;;16.30;1.00;;;;;;4995050;28;20425;-74
2023/10/26 12:49:56;;;;;;;1.53;1.30;;;16.50;1.00;;;;;;4994692;28;20920;-73
2023/10/26 12:52:21;;;;;;;1.53;1.43;;;16.50;1.00;;;;;;5001607;28;20434;-73
2023/10/26 12:54:47;;;;;;;1.50;1.40;;;16.80;1.00;;;;;;5002767;28;20168;-74
2023/10/26 12:57:25;;;;;;;3.00;1.53;;;16.90;1.00;;;;;;5003339;28;20222;-74
2023/10/26 13:00:00;;;;;;;2.47;1.50;;;16.90;1.00;;;;;;4999123;28;20179;-74
2023/10/26 13:02:26;;;;;;;1.63;1.37;;;17.00;1.00;;;;;;4990999;28;20921;-72
2023/10/26 13:04:52;;;;;;;3.40;1.40;;;17.10;1.00;;;;;;4999565;28;20389;-76
2023/10/26 13:07:17;;;;;;;1.87;1.00;;;17.20;1.00;;;;;;5003515;28;20193;-74
2023/10/26 13:09:48;;;;;;;2.20;1.33;;;17.20;1.00;;;;;;4991147;28;20415;-77
2023/10/26 13:12:24;;;;;;;2.90;2.00;;;17.20;1.00;;;;;;5000345;28;20246;-77
2023/10/26 13:14:50;;;;;;;1.73;1.50;;;17.20;1.00;;;;;;4995473;28;20435;-78
2023/10/26 13:17:54;;;;;;;2.53;1.20;;;17.20;1.00;;;;;;4995586;28;20457;-81
2023/10/26 13:20:19;;;;;;;1.23;1.13;;;17.20;1.00;;;;;;4988728;28;20184;-76
2023/10/26 13:23:00;;;;;;;1.70;1.60;;;16.90;1.00;;;;;;4994516;28;20478;-76
2023/10/26 13:25:26;;;;;;;1.50;1.40;;;16.90;1.00;;;;;;4987369;28;20187;-72
2023/10/26 13:27:53;;;;;;;4.00;1.60;;;16.60;1.00;;;;;;4997633;28;20969;-73
2023/10/26 13:30:19;;;;;;;16.03;1.77;;;16.60;1.00;;;;;;4997733;28;20970;-73
2023/10/26 13:32:45;;;;;;;7.30;1.83;;;16.50;1.00;;;;;;4993731;28;20409;-73
2023/10/26 13:35:11;;;;;;;2.30;1.63;;;16.50;1.00;;;;;;4981703;28;21109;-72
2023/10/26 13:37:37;;;;;;;4.73;1.83;;;16.30;1.00;;;;;;5010337;28;20579;-73
2023/10/26 13:40:04;;;;;;;4.40;1.70;;;16.30;1.00;;;;;;5007392;28;20433;-73
2023/10/26 13:42:30;;;;;;;2.10;1.90;;;16.30;1.00;;;;;;5010026;28;20409;-72
2023/10/26 13:44:56;;;;;;;2.40;1.87;;;16.30;1.00;;;;;;5013720;28;20420;-73
2023/10/26 13:47:22;;;;;;;3.20;2.20;;;16.20;1.00;;;;;;5015717;28;20182;-73
2023/10/26 13:49:48;;;;;;;2.57;2.37;;;16.20;1.00;;;;;;5012210;28;20215;-73
2023/10/26 13:52:15;;;;;;;4.83;2.47;;;16.20;1.00;;;;;;5015437;28;20237;-73
2023/10/26 13:58:03;;;;;;;2.70;2.50;;;16.20;1.00;;;;;;5012792;28;20491;-79
2023/10/26 14:00:48;;;;;;;4.80;2.57;;;16.20;1.00;;;;;;5016604;28;20813;-79
2023/10/26 14:03:48;;;;;;;2.83;2.63;;;16.00;1.00;;;;;;5015167;28;20804;-79
2023/10/26 14:06:54;;;;;;;7.13;2.43;;;15.90;1.00;;;;;;5013707;28;20442;-79
2023/10/26 14:09:24;;;;;;;8.40;2.07;;;15.90;1.00;;;;;;5012836;28;20833;-74
2023/10/26 14:12:06;;;;;;;3.37;2.97;;;15.90;1.00;;;;;;5014577;28;20935;-78
2023/10/26 14:15:03;;;;;;;3.53;2.47;;;15.80;1.00;;;;;;5026163;28;20410;-79
2023/10/26 14:17:34;;;;;;;9.63;2.60;;;15.70;1.00;;;;;;5007307;28;20806;-79
2023/10/26 14:20:48;;;;;;;2.70;2.50;;;15.60;1.00;;;;;;5020144;28;20754;-79
2023/10/26 14:36:41;;;;;;;7.60;2.63;;;15.20;1.00;;;;;;5014285;28;20471;-75
2023/10/26 14:39:42;;;;;;;3.57;2.70;;;15.10;1.00;;;;;;5015722;28;20436;-74
2023/10/26 14:42:08;;;;;;;5.10;2.30;;;15.00;1.00;;;;;;5016502;28;20257;-74
2023/10/26 14:44:33;;;;;;;6.10;2.67;;;14.90;1.00;;;;;;5029664;28;20482;-75
2023/10/26 14:47:07;;;;;;;5.23;3.33;;;14.90;1.00;;;;;;5021996;28;20183;-74
2023/10/26 14:49:33;;;;;;;5.50;3.67;;;14.90;1.00;;;;;;5022621;28;20243;-74
2023/10/26 14:51:59;;;;;;;3.60;3.30;;;14.90;1.00;;;;;;5035918;28;20870;-74
2023/10/26 14:54:25;;;;;;;6.10;3.93;;;14.90;1.00;;;;;;5012131;28;21969;-74
2023/10/26 14:56:51;;;;;;;8.00;3.63;;;14.80;1.00;;;;;;5016598;28;20495;-74
2023/10/26 14:59:36;;;;;;;4.03;3.20;;;14.80;1.00;;;;;;5017710;28;20173;-74
2023/10/26 15:02:48;;;;;;;4.27;3.30;;;14.60;1.00;;;;;;5023117;28;20505;-74
2023/10/26 15:05:33;;;;;;;7.00;4.00;;;14.60;1.00;;;;;;5022163;28;20402;-74
2023/10/26 15:08:12;;;;;;;8.87;5.40;;;14.60;1.00;;;;;;5020989;28;20442;-74
2023/10/26 15:11:18;;;;;;;5.50;4.40;;;14.60;1.00;;;;;;5010816;28;20432;-77
2023/10/26 15:14:00;;;;;;;9.00;5.27;;;14.60;1.00;;;;;;5015845;28;20391;-80
2023/10/26 15:27:18;;;;;;;4.60;2.93;;;14.40;1.00;;;;;;5016315;28;20848;-84
2023/10/26 15:33:05;;;;;;;7.70;3.13;;;14.20;1.00;;;;;;5022595;28;20427;-77
2023/10/26 15:36:02;;;;;;;4.40;3.30;;;14.20;1.00;;;;;;5015188;28;20908;-77
2023/10/26 15:41:49;;;;;;;4.27;3.20;;;14.10;1.00;;;;;;5009443;28;20389;-74
2023/10/26 15:44:32;;;;;;;8.50;4.07;;;14.10;1.00;;;;;;5018646;28;20406;-75
2023/10/26 15:46:58;;;;;;;5.90;3.60;;;14.00;1.00;;;;;;5010728;28;20522;-74
2023/10/26 15:49:24;;;;;;;5.00;3.37;;;13.90;1.00;;;;;;5014187;28;20519;-74
2023/10/26 15:51:55;;;;;;;6.30;3.50;;;13.90;1.00;;;;;;5027229;28;20172;-74
2023/10/26 15:54:21;;;;;;;4.37;3.33;;;13.80;1.00;;;;;;5016723;28;20402;-73
2023/10/26 16:00:42;;;;;;;4.47;3.87;;;13.80;1.00;;;;;;5008400;28;20466;-77
2023/10/26 16:03:08;;;;;;;3.50;3.20;;;13.70;1.00;;;;;;5006296;28;20866;-79
2023/10/26 16:05:42;;;;;;;9.30;3.50;;;13.60;1.00;;;;;;5016519;28;20529;-78